sensor_id;sensor_type;location;lat;lon;timestamp;pressure;altitude;pressure_sealevel;temperature;humidity
47712;BME280;57457;51.634;5.886;2024-03-02T00:09:42;99600;;;9.0;77.4
47712;BME280;57457;51.634;5.886;2024-03-02T00:23:03;99600;;;9.1;77.4
47712;BME280;57457;51.634;5.886;2024-03-02T00:36:24;99600;;;9.1;76.8
47712;BME280;57457;51.634;5.886;2024-03-02T00:49:45;99600;;;9.3;75.9
47712;BME280;57457;51.634;5.886;2024-03-02T01:03:06;99600;;;9.4;75.4
47712;BME280;57457;51.634;5.886;2024-03-02T01:16:28;99600;;;9.6;79.4
47712;BME280;57457;51.634;5.886;2024-03-02T01:29:49;99600;;;9.6;80.4
47712;BME280;57457;51.634;5.886;2024-03-02T01:43:44;99700;;;9.5;80.1
47712;BME280;57457;51.634;5.886;2024-03-02T01:57:40;99700;;;9.4;79.2
47712;BME280;57457;51.634;5.886;2024-03-02T02:11:16;99700;;;9.3;80.2
47712;BME280;57457;51.634;5.886;2024-03-02T02:24:47;99700;;;9.2;79.9
47712;BME280;57457;51.634;5.886;2024-03-02T02:38:31;99700;;;9.1;79.8
47712;BME280;57457;51.634;5.886;2024-03-02T02:52:41;99700;;;9.1;80.7
47712;BME280;57457;51.634;5.886;2024-03-02T03:07:05;99600;;;9.0;81.7
47712;BME280;57457;51.634;5.886;2024-03-02T03:21:34;99700;;;8.9;82.5
47712;BME280;57457;51.634;5.886;2024-03-02T03:35:33;99700;;;8.7;83.4
47712;BME280;57457;51.634;5.886;2024-03-02T03:49:29;99700;;;8.6;83.9
47712;BME280;57457;51.634;5.886;2024-03-02T04:03:10;99700;;;8.4;83.8
47712;BME280;57457;51.634;5.886;2024-03-02T04:17:23;99700;;;8.4;83.4
47712;BME280;57457;51.634;5.886;2024-03-02T04:31:46;99700;;;8.3;83.1
47712;BME280;57457;51.634;5.886;2024-03-02T04:45:22;99700;;;8.3;83.0
47712;BME280;57457;51.634;5.886;2024-03-02T04:59:01;99700;;;8.2;83.3
47712;BME280;57457;51.634;5.886;2024-03-02T05:12:45;99700;;;8.1;83.3
47712;BME280;57457;51.634;5.886;2024-03-02T05:26:26;99700;;;8.0;83.0
47712;BME280;57457;51.634;5.886;2024-03-02T05:40:07;99700;;;7.9;82.6
47712;BME280;57457;51.634;5.886;2024-03-02T05:53:30;99700;;;7.9;82.8
47712;BME280;57457;51.634;5.886;2024-03-02T06:06:48;99700;;;7.9;83.2
47712;BME280;57457;51.634;5.886;2024-03-02T06:20:10;99700;;;7.9;83.7
47712;BME280;57457;51.634;5.886;2024-03-02T06:34:16;99800;;;7.7;83.7
47712;BME280;57457;51.634;5.886;2024-03-02T06:48:17;99800;;;7.6;84.2
47712;BME280;57457;51.634;5.886;2024-03-02T07:01:58;99800;;;7.5;84.8
47712;BME280;57457;51.634;5.886;2024-03-02T07:15:29;99800;;;7.3;85.1
47712;BME280;57457;51.634;5.886;2024-03-02T07:29:02;99800;;;7.1;85.1
47712;BME280;57457;51.634;5.886;2024-03-02T07:42:43;99800;;;7.2;84.2
47712;BME280;57457;51.634;5.886;2024-03-02T07:56:14;99800;;;7.4;82.2
47712;BME280;57457;51.634;5.886;2024-03-02T08:09:37;99800;;;8.0;78.6
47712;BME280;57457;51.634;5.886;2024-03-02T08:22:55;99800;;;8.8;76.2
47712;BME280;57457;51.634;5.886;2024-03-02T08:36:03;99800;;;9.3;75.5
47712;BME280;57457;51.634;5.886;2024-03-02T08:49:14;99800;;;9.7;73.5
47712;BME280;57457;51.634;5.886;2024-03-02T09:02:50;99800;;;10.2;72.5
47712;BME280;57457;51.634;5.886;2024-03-02T09:16:21;99800;;;10.6;72.3
47712;BME280;57457;51.634;5.886;2024-03-02T09:29:42;99900;;;10.7;73.2
47712;BME280;57457;51.634;5.886;2024-03-02T09:43:05;99900;;;10.7;72.0
47712;BME280;57457;51.634;5.886;2024-03-02T09:56:36;99900;;;10.8;70.9
47712;BME280;57457;51.634;5.886;2024-03-02T10:23:31;99900;;;11.4;67.1
47712;BME280;57457;51.634;5.886;2024-03-02T10:36:54;99800;;;12.0;61.8
47712;BME280;57457;51.634;5.886;2024-03-02T10:50:17;99800;;;12.5;59.8
47712;BME280;57457;51.634;5.886;2024-03-02T11:03:44;99800;;;13.0;59.0
47712;BME280;57457;51.634;5.886;2024-03-02T11:17:06;99800;;;13.4;61.6
47712;BME280;57457;51.634;5.886;2024-03-02T11:43:51;99800;;;13.6;59.8
47712;BME280;57457;51.634;5.886;2024-03-02T11:57:12;99800;;;13.8;60.0
47712;BME280;57457;51.634;5.886;2024-03-02T12:10:34;99800;;;13.8;61.2
47712;BME280;57457;51.634;5.886;2024-03-02T12:23:55;99800;;;14.1;59.6
47712;BME280;57457;51.634;5.886;2024-03-02T12:37:16;99800;;;14.4;56.8
47712;BME280;57457;51.634;5.886;2024-03-02T12:50:39;99700;;;14.6;56.3
47712;BME280;57457;51.634;5.886;2024-03-02T13:04:00;99700;;;15.0;54.4
47712;BME280;57457;51.634;5.886;2024-03-02T13:17:21;99700;;;15.3;53.7
47712;BME280;57457;51.634;5.886;2024-03-02T13:30:46;99700;;;15.5;54.2
47712;BME280;57457;51.634;5.886;2024-03-02T13:44:07;99700;;;15.5;54.5
47712;BME280;57457;51.634;5.886;2024-03-02T13:57:28;99700;;;15.4;55.1
47712;BME280;57457;51.634;5.886;2024-03-02T14:10:49;99700;;;15.4;55.9
47712;BME280;57457;51.634;5.886;2024-03-02T14:24:10;99700;;;15.7;55.2
47712;BME280;57457;51.634;5.886;2024-03-02T14:37:32;99600;;;15.8;55.7
47712;BME280;57457;51.634;5.886;2024-03-02T14:50:53;99600;;;15.9;54.9
47712;BME280;57457;51.634;5.886;2024-03-02T15:04:14;99600;;;16.1;58.0
47712;BME280;57457;51.634;5.886;2024-03-02T15:17:35;99600;;;15.9;57.5
47712;BME280;57457;51.634;5.886;2024-03-02T15:30:56;99600;;;16.0;58.9
47712;BME280;57457;51.634;5.886;2024-03-02T15:44:18;99600;;;15.9;60.5
47712;BME280;57457;51.634;5.886;2024-03-02T15:57:39;99600;;;15.7;60.8
47712;BME280;57457;51.634;5.886;2024-03-02T16:11:00;99600;;;15.6;63.2
47712;BME280;57457;51.634;5.886;2024-03-02T16:24:21;99600;;;15.2;64.8
47712;BME280;57457;51.634;5.886;2024-03-02T16:37:44;99600;;;14.8;65.1
47712;BME280;57457;51.634;5.886;2024-03-02T16:51:04;99600;;;14.6;67.4
47712;BME280;57457;51.634;5.886;2024-03-02T17:04:25;99600;;;14.4;68.8
47712;BME280;57457;51.634;5.886;2024-03-02T17:17:46;99600;;;14.0;70.1
47712;BME280;57457;51.634;5.886;2024-03-02T17:31:07;99600;;;13.6;69.8
47712;BME280;57457;51.634;5.886;2024-03-02T17:44:28;99600;;;13.4;69.1
47712;BME280;57457;51.634;5.886;2024-03-02T17:57:50;99600;;;13.3;69.2
47712;BME280;57457;51.634;5.886;2024-03-02T18:11:11;99600;;;13.2;69.1
47712;BME280;57457;51.634;5.886;2024-03-02T18:24:32;99600;;;13.0;69.6
47712;BME280;57457;51.634;5.886;2024-03-02T18:37:53;99600;;;12.9;69.3
47712;BME280;57457;51.634;5.886;2024-03-02T18:51:14;99600;;;12.8;69.1
47712;BME280;57457;51.634;5.886;2024-03-02T19:04:36;99600;;;12.8;69.2
47712;BME280;57457;51.634;5.886;2024-03-02T19:17:57;99600;;;12.8;68.7
47712;BME280;57457;51.634;5.886;2024-03-02T19:31:18;99600;;;12.8;67.8
47712;BME280;57457;51.634;5.886;2024-03-02T19:44:39;99600;;;12.9;66.9
47712;BME280;57457;51.634;5.886;2024-03-02T19:58:00;99600;;;13.0;67.8
47712;BME280;57457;51.634;5.886;2024-03-02T20:11:22;99600;;;12.9;69.1
47712;BME280;57457;51.634;5.886;2024-03-02T20:24:43;99600;;;12.7;69.5
47712;BME280;57457;51.634;5.886;2024-03-02T20:38:04;99600;;;12.4;70.0
47712;BME280;57457;51.634;5.886;2024-03-02T21:04:46;99600;;;12.2;69.0
47712;BME280;57457;51.634;5.886;2024-03-02T21:18:08;99600;;;12.3;68.5
47712;BME280;57457;51.634;5.886;2024-03-02T21:31:29;99600;;;12.4;69.3
47712;BME280;57457;51.634;5.886;2024-03-02T21:44:50;99600;;;12.3;70.3
47712;BME280;57457;51.634;5.886;2024-03-02T21:58:11;99600;;;12.0;72.0
47712;BME280;57457;51.634;5.886;2024-03-02T22:11:32;99600;;;11.8;72.8
47712;BME280;57457;51.634;5.886;2024-03-02T22:24:54;99600;;;11.7;73.0
47712;BME280;57457;51.634;5.886;2024-03-02T22:38:15;99600;;;11.7;72.9
47712;BME280;57457;51.634;5.886;2024-03-02T22:51:36;99600;;;11.8;72.2
47712;BME280;57457;51.634;5.886;2024-03-02T23:04:57;99600;;;11.9;71.0
47712;BME280;57457;51.634;5.886;2024-03-02T23:18:18;99600;;;12.0;71.0
47712;BME280;57457;51.634;5.886;2024-03-02T23:31:40;99600;;;12.2;71.1
47712;BME280;57457;51.634;5.886;2024-03-02T23:45:01;99600;;;12.3;71.1
47712;BME280;57457;51.634;5.886;2024-03-02T23:58:22;99600;;;12.3;71.0
